Time;durP1;ratioP1;P1;durP2;ratioP2;P2;SDS_P1;SDS_P2;PMS_P1;PMS_P2;Temp;Humidity;BMP_temperature;BMP_pressure;BME280_temperature;BME280_humidity;BME280_pressure;Samples;Min_cycle;Max_cycle;Signal;HPM_P1;HPM_P2
2022/06/15 00:02:10;;;;;;;;;;;;;;;18.81;79.82;99818.31;5032639;28;822;-61
2022/06/15 00:04:36;;;;;;;;;;;;;;;18.77;80.05;99815.59;5032558;28;839;-61
2022/06/15 00:07:03;;;;;;;;;;;;;;;18.77;80.07;99810.00;5032521;28;803;-63
2022/06/15 00:09:30;;;;;;;;;;;;;;;18.73;80.40;99809.38;5032562;28;827;-61
2022/06/15 00:11:57;;;;;;;;;;;;;;;18.72;80.79;99816.22;5032487;28;854;-63
2022/06/15 00:14:25;;;;;;;;;;;;;;;18.67;81.10;99812.00;5032475;28;811;-61
2022/06/15 00:16:52;;;;;;;;;;;;;;;18.68;81.19;99801.56;5032226;28;882;-61
2022/06/15 00:19:19;;;;;;;;;;;;;;;18.66;81.42;99812.44;5032293;28;1947;-61
2022/06/15 00:21:46;;;;;;;;;;;;;;;18.60;81.91;99803.06;5032272;28;818;-63
2022/06/15 00:24:13;;;;;;;;;;;;;;;18.53;82.21;99809.72;5032275;28;783;-63
2022/06/15 00:26:41;;;;;;;;;;;;;;;18.49;82.42;99801.44;5032111;28;930;-60
2022/06/15 00:29:08;;;;;;;;;;;;;;;18.47;82.60;99806.72;5032189;28;1030;-62
2022/06/15 00:31:34;;;;;;;;;;;;;;;18.45;82.65;99812.00;5010789;28;1419;-61
2022/06/15 00:34:00;;;;;;;;;;;;;;;18.38;83.25;99812.28;5012289;28;873;-62
2022/06/15 00:36:27;;;;;;;;;;;;;;;18.31;83.65;99818.13;5012373;28;822;-61
2022/06/15 00:38:56;;;;;;;;;;;;;;;18.26;84.06;99824.31;5012180;28;1910;-62
2022/06/15 00:41:24;;;;;;;;;;;;;;;18.19;84.33;99819.75;5012520;28;823;-62
2022/06/15 00:43:53;;;;;;;;;;;;;;;18.14;84.73;99820.34;5012499;28;881;-63
2022/06/15 00:46:31;;;;;;;;;;;;;;;18.08;85.09;99824.94;5012710;28;854;-62
2022/06/15 00:52:03;;;;;;;;;;;;;;;17.96;85.91;99829.34;5012229;28;613;-63
2022/06/15 00:54:30;;;;;;;;;;;;;;;17.87;86.58;99829.28;5012034;28;853;-63
2022/06/15 00:56:56;;;;;;;;;;;;;;;17.89;86.55;99835.97;5012183;28;886;-63
2022/06/15 00:59:25;;;;;;;;;;;;;;;17.84;86.82;99835.78;5011898;28;1906;-62
2022/06/15 01:01:52;;;;;;;;;;;;;;;17.78;87.32;99838.31;5012031;28;831;-62
2022/06/15 01:04:20;;;;;;;;;;;;;;;17.74;87.73;99841.22;5012023;28;835;-62
2022/06/15 01:07:05;;;;;;;;;;;;;;;17.71;88.02;99841.38;5011845;28;869;-60
2022/06/15 01:09:36;;;;;;;;;;;;;;;17.66;88.35;99841.94;5011976;28;874;-61
2022/06/15 01:12:04;;;;;;;;;;;;;;;17.66;88.68;99848.28;5011856;28;852;-62
2022/06/15 01:14:34;;;;;;;;;;;;;;;17.67;88.61;99833.09;5011773;28;842;-62
2022/06/15 01:17:26;;;;;;;;;;;;;;;17.71;88.43;99833.00;5010487;28;1197;-61
2022/06/15 01:19:55;;;;;;;;;;;;;;;17.77;88.26;99842.34;5011656;28;1886;-62
2022/06/15 01:22:37;;;;;;;;;;;;;;;17.73;88.30;99830.50;5010701;28;863;-60
2022/06/15 01:25:20;;;;;;;;;;;;;;;17.70;88.71;99840.56;5012060;28;799;-61
2022/06/15 01:27:50;;;;;;;;;;;;;;;17.64;88.86;99833.97;5011825;28;822;-60
2022/06/15 01:30:28;;;;;;;;;;;;;;;17.56;89.14;99835.47;5015842;28;1336;-60
2022/06/15 01:33:24;;;;;;;;;;;;;;;17.46;90.03;99831.78;5031543;28;885;-62
2022/06/15 01:35:55;;;;;;;;;;;;;;;17.42;90.24;99833.13;4951151;28;1045;-60
2022/06/15 01:38:45;;;;;;;;;;;;;;;17.43;90.30;99834.69;4951249;29;843;-64
2022/06/15 01:41:32;;;;;;;;;;;;;;;17.44;90.31;99836.28;4951405;29;1950;-61
2022/06/15 01:44:08;;;;;;;;;;;;;;;17.48;90.14;99842.53;4951396;28;891;-63
2022/06/15 01:46:36;;;;;;;;;;;;;;;17.51;90.07;99839.59;4955107;29;926;-62
2022/06/15 01:49:04;;;;;;;;;;;;;;;17.55;89.90;99831.09;4955077;29;894;-61
2022/06/15 01:51:34;;;;;;;;;;;;;;;17.55;89.97;99840.25;4954995;29;894;-61
2022/06/15 01:54:04;;;;;;;;;;;;;;;17.57;89.96;99844.63;4938728;29;1351;-62
2022/06/15 01:56:34;;;;;;;;;;;;;;;17.54;90.07;99843.53;4954868;29;827;-61
2022/06/15 01:59:30;;;;;;;;;;;;;;;17.53;90.39;99831.53;4954721;29;1887;-60
2022/06/15 02:02:04;;;;;;;;;;;;;;;17.33;90.39;99826.22;4942889;29;1393;-61
2022/06/15 02:04:31;;;;;;;;;;;;;;;17.55;90.39;99850.66;4954795;29;804;-61
2022/06/15 02:07:11;;;;;;;;;;;;;;;17.51;90.74;99856.34;4954707;29;800;-61
2022/06/15 02:09:44;;;;;;;;;;;;;;;17.48;91.03;99856.50;4954941;29;808;-60
2022/06/15 02:12:15;;;;;;;;;;;;;;;17.45;91.02;99851.78;4993612;28;1181;-61
2022/06/15 02:14:45;;;;;;;;;;;;;;;17.43;91.16;99854.25;5034786;28;897;-62
2022/06/15 02:17:22;;;;;;;;;;;;;;;17.40;91.36;99857.94;5034727;28;881;-59
2022/06/15 02:19:50;;;;;;;;;;;;;;;17.38;91.32;99863.19;5034540;28;1953;-61
2022/06/15 02:22:19;;;;;;;;;;;;;;;17.34;91.32;99852.13;5034645;28;894;-61
2022/06/15 02:24:48;;;;;;;;;;;;;;;17.27;91.81;99852.38;5034515;28;862;-61
2022/06/15 02:27:15;;;;;;;;;;;;;;;17.25;92.24;99857.63;5034477;28;881;-61
2022/06/15 02:29:44;;;;;;;;;;;;;;;17.30;91.90;99868.22;5034611;28;995;-61
2022/06/15 02:32:11;;;;;;;;;;;;;;;17.29;91.93;99855.50;5033086;28;1439;-60
2022/06/15 02:34:38;;;;;;;;;;;;;;;17.27;92.05;99855.94;5033214;28;858;-60
2022/06/15 02:37:05;;;;;;;;;;;;;;;17.27;91.90;99855.16;5033156;28;862;-61
2022/06/15 02:39:32;;;;;;;;;;;;;;;17.25;91.74;99863.19;5033124;28;1914;-63
2022/06/15 02:42:20;;;;;;;;;;;;;;;17.22;92.37;99872.47;5033057;28;799;-62
2022/06/15 02:44:48;;;;;;;;;;;;;;;17.18;92.46;99864.22;5032811;28;1137;-59
2022/06/15 02:47:16;;;;;;;;;;;;;;;17.18;92.55;99861.41;5033026;28;787;-60
2022/06/15 02:49:44;;;;;;;;;;;;;;;17.18;92.79;99874.59;5033222;28;881;-61
2022/06/15 02:52:12;;;;;;;;;;;;;;;17.17;92.89;99865.44;5032785;28;906;-60
2022/06/15 02:54:41;;;;;;;;;;;;;;;17.18;92.82;99878.19;5032952;28;819;-61
2022/06/15 02:57:08;;;;;;;;;;;;;;;17.19;92.88;99876.16;5032661;28;871;-62
2022/06/15 02:59:35;;;;;;;;;;;;;;;17.24;92.84;99875.59;5032749;28;1947;-61
2022/06/15 03:02:02;;;;;;;;;;;;;;;17.30;92.57;99882.19;5032698;28;909;-60
2022/06/15 03:04:29;;;;;;;;;;;;;;;17.38;92.10;99891.13;5032629;28;984;-62
2022/06/15 03:06:56;;;;;;;;;;;;;;;17.46;91.29;99893.25;5032659;28;842;-61
2022/06/15 03:09:24;;;;;;;;;;;;;;;17.56;90.87;99888.56;5032562;28;814;-61
2022/06/15 03:11:51;;;;;;;;;;;;;;;17.64;90.34;99901.06;5032567;28;971;-60
2022/06/15 03:14:18;;;;;;;;;;;;;;;17.70;89.72;99890.88;5014681;28;1367;-60
2022/06/15 03:16:48;;;;;;;;;;;;;;;17.82;89.06;99903.31;5032530;28;846;-60
2022/06/15 03:19:15;;;;;;;;;;;;;;;17.95;88.23;99906.09;5032376;28;1886;-61
2022/06/15 03:21:42;;;;;;;;;;;;;;;18.07;87.31;99913.66;5032430;28;866;-60
2022/06/15 03:24:09;;;;;;;;;;;;;;;18.17;86.88;99917.31;5032359;28;857;-60
2022/06/15 03:26:36;;;;;;;;;;;;;;;18.28;86.48;99930.94;5014834;28;835;-62
2022/06/15 03:29:02;;;;;;;;;;;;;;;18.39;85.73;99938.97;5032272;28;907;-60
2022/06/15 03:32:30;;;;;;;;;;;;;;;18.48;84.71;99939.84;5109630;27;1284;-61
2022/06/15 03:34:55;;;;;;;;;;;;;;;18.54;84.10;99937.22;5109440;28;845;-62
2022/06/15 03:37:22;;;;;;;;;;;;;;;18.56;84.00;99931.94;5109476;28;845;-60
2022/06/15 03:39:49;;;;;;;;;;;;;;;18.54;83.85;99931.63;5109333;28;826;-61
2022/06/15 03:42:18;;;;;;;;;;;;;;;18.54;83.90;99934.41;5109247;28;890;-59
2022/06/15 03:44:46;;;;;;;;;;;;;;;18.56;83.91;99946.75;5109269;28;810;-61
2022/06/15 03:47:13;;;;;;;;;;;;;;;18.66;83.68;99947.59;5109455;28;842;-60
2022/06/15 03:49:39;;;;;;;;;;;;;;;18.71;83.34;99943.41;5109505;28;813;-60
2022/06/15 03:52:08;;;;;;;;;;;;;;;18.72;83.26;99945.00;5109061;28;1918;-60
2022/06/15 03:54:35;;;;;;;;;;;;;;;18.70;83.13;99947.47;5109019;28;889;-60
2022/06/15 03:57:02;;;;;;;;;;;;;;;18.67;83.22;99953.97;5107730;28;1181;-60
2022/06/15 03:59:29;;;;;;;;;;;;;;;18.75;83.32;99960.88;5108963;28;867;-60
2022/06/15 04:01:56;;;;;;;;;;;;;;;18.75;82.96;99961.66;5107917;28;1234;-60
2022/06/15 04:04:23;;;;;;;;;;;;;;;18.64;83.43;99969.66;5108899;28;826;-59
2022/06/15 04:06:50;;;;;;;;;;;;;;;18.60;83.61;99974.59;5108852;28;810;-61
2022/06/15 04:09:21;;;;;;;;;;;;;;;18.65;83.45;99974.03;5108782;28;813;-61
2022/06/15 04:12:01;;;;;;;;;;;;;;;18.76;83.01;99990.44;5108842;28;1889;-61
2022/06/15 04:14:32;;;;;;;;;;;;;;;19.07;82.30;99993.34;5108681;28;889;-61
2022/06/15 04:16:59;;;;;;;;;;;;;;;19.46;80.92;99990.28;5108860;28;929;-60
2022/06/15 04:19:27;;;;;;;;;;;;;;;19.77;79.58;99996.69;5108587;28;874;-60
2022/06/15 04:21:54;;;;;;;;;;;;;;;20.13;78.42;99992.44;5108454;28;904;-61
2022/06/15 04:24:22;;;;;;;;;;;;;;;20.28;77.51;99994.66;5108394;28;952;-60
2022/06/15 04:26:49;;;;;;;;;;;;;;;20.10;77.36;100001.00;5109169;28;813;-60
2022/06/15 04:29:18;;;;;;;;;;;;;;;19.72;78.17;99991.69;5108636;28;857;-60
2022/06/15 04:31:45;;;;;;;;;;;;;;;19.43;78.86;100003.19;5107971;28;2000;-61
2022/06/15 04:34:12;;;;;;;;;;;;;;;19.23;79.39;100006.38;5108450;28;822;-60
2022/06/15 04:36:40;;;;;;;;;;;;;;;19.31;79.54;100004.88;5108431;28;881;-60
2022/06/15 04:39:11;;;;;;;;;;;;;;;19.72;78.82;100010.56;5106921;28;1344;-60
2022/06/15 04:41:38;;;;;;;;;;;;;;;19.91;78.18;100005.81;5106310;28;1727;-60
2022/06/15 04:44:06;;;;;;;;;;;;;;;19.79;78.56;100011.03;5094065;28;1048;-60
2022/06/15 04:46:33;;;;;;;;;;;;;;;19.92;77.97;100010.16;5094493;28;830;-60
2022/06/15 04:49:01;;;;;;;;;;;;;;;20.06;77.04;100006.78;5094480;28;826;-60
2022/06/15 04:51:29;;;;;;;;;;;;;;;20.13;75.68;100011.31;5094371;28;1917;-60
2022/06/15 04:53:57;;;;;;;;;;;;;;;20.22;75.49;100011.34;5093108;28;1184;-61
2022/06/15 04:56:23;;;;;;;;;;;;;;;20.19;74.59;100013.06;5094276;28;868;-60
2022/06/15 04:58:50;;;;;;;;;;;;;;;20.20;74.17;100019.44;5094331;28;881;-60
2022/06/15 05:01:17;;;;;;;;;;;;;;;20.29;74.17;100013.06;5094193;28;837;-62
2022/06/15 05:03:43;;;;;;;;;;;;;;;20.38;73.55;100024.31;5094160;28;806;-59
2022/06/15 05:06:12;;;;;;;;;;;;;;;20.51;72.88;100015.75;5094129;28;861;-60
2022/06/15 05:08:39;;;;;;;;;;;;;;;20.67;72.17;100015.47;5094119;28;814;-60
2022/06/15 05:11:06;;;;;;;;;;;;;;;20.78;72.05;100015.81;5093929;28;1890;-60
2022/06/15 05:13:33;;;;;;;;;;;;;;;21.08;70.92;100029.38;5094021;28;868;-60
2022/06/15 05:16:00;;;;;;;;;;;;;;;21.38;69.73;100027.63;5094004;28;833;-60
2022/06/15 05:18:27;;;;;;;;;;;;;;;21.50;68.42;100029.47;5093879;28;985;-60
2022/06/15 05:20:54;;;;;;;;;;;;;;;21.74;68.39;100035.19;5093805;28;901;-60
2022/06/15 05:23:20;;;;;;;;;;;;;;;22.15;66.56;100037.69;5093804;28;846;-60
2022/06/15 05:25:47;;;;;;;;;;;;;;;22.68;64.92;100039.88;5093882;28;850;-61
2022/06/15 05:28:15;;;;;;;;;;;;;;;23.25;62.47;100036.13;5093824;28;850;-61
2022/06/15 05:30:42;;;;;;;;;;;;;;;23.81;60.66;100037.13;5093326;28;1910;-60
2022/06/15 05:33:09;;;;;;;;;;;;;;;24.18;58.14;100035.88;5093627;28;806;-60
2022/06/15 05:35:37;;;;;;;;;;;;;;;24.55;56.33;100036.13;5093582;28;833;-61
2022/06/15 05:38:04;;;;;;;;;;;;;;;24.92;55.06;100037.59;5093472;28;905;-61
2022/06/15 05:40:31;;;;;;;;;;;;;;;25.45;54.74;100031.50;5093410;28;822;-60
2022/06/15 05:42:57;;;;;;;;;;;;;;;25.96;52.61;100046.06;5093483;28;814;-61
2022/06/15 05:45:24;;;;;;;;;;;;;;;26.01;51.78;100050.22;5093310;28;821;-60
2022/06/15 05:47:51;;;;;;;;;;;;;;;26.22;51.60;100048.84;5093354;28;869;-61
2022/06/15 05:50:18;;;;;;;;;;;;;;;26.51;50.97;100049.00;5093260;28;1893;-61
2022/06/15 05:52:45;;;;;;;;;;;;;;;26.60;49.71;100043.91;5093231;28;869;-61
2022/06/15 05:55:11;;;;;;;;;;;;;;;27.15;49.38;100047.44;5092256;28;846;-61
2022/06/15 05:57:37;;;;;;;;;;;;;;;27.34;48.91;100047.00;5093367;28;877;-60
2022/06/15 06:00:05;;;;;;;;;;;;;;;27.64;47.59;100048.03;5093064;28;845;-61
2022/06/15 06:02:32;;;;;;;;;;;;;;;27.91;46.18;100051.44;5093057;28;814;-61
2022/06/15 06:04:59;;;;;;;;;;;;;;;28.66;45.61;100042.22;5092957;28;895;-61
2022/06/15 06:07:26;;;;;;;;;;;;;;;29.39;45.02;100047.53;5092866;28;857;-61
2022/06/15 06:09:53;;;;;;;;;;;;;;;30.19;43.38;100051.25;5092998;28;826;-62
2022/06/15 06:12:19;;;;;;;;;;;;;;;30.22;43.02;100050.19;5092776;28;1913;-61
2022/06/15 06:14:47;;;;;;;;;;;;;;;30.44;42.13;100054.13;5093121;28;814;-62
2022/06/15 06:17:13;;;;;;;;;;;;;;;30.57;40.51;100059.94;5092680;28;838;-63
2022/06/15 06:19:40;;;;;;;;;;;;;;;30.10;41.31;100060.91;5092801;28;849;-61
2022/06/15 06:22:08;;;;;;;;;;;;;;;30.46;41.28;100062.91;5092706;28;830;-61
2022/06/15 06:24:34;;;;;;;;;;;;;;;31.24;40.88;100066.06;5092650;28;893;-61
2022/06/15 06:27:04;;;;;;;;;;;;;;;31.69;39.67;100059.72;5092798;28;814;-62
2022/06/15 06:29:31;;;;;;;;;;;;;;;31.32;38.24;100055.56;5092884;28;829;-61
2022/06/15 06:31:59;;;;;;;;;;;;;;;30.83;38.88;100058.56;5091981;28;1898;-61
2022/06/15 06:34:25;;;;;;;;;;;;;;;30.32;38.94;100059.97;5092649;28;898;-61
2022/06/15 06:36:52;;;;;;;;;;;;;;;30.11;39.92;100056.78;5092392;28;771;-61
2022/06/15 06:39:20;;;;;;;;;;;;;;;30.36;39.97;100056.03;5092257;28;862;-61
2022/06/15 06:41:47;;;;;;;;;;;;;;;30.72;39.04;100065.19;5092192;28;954;-61
2022/06/15 06:44:13;;;;;;;;;;;;;;;30.87;39.12;100068.38;5092601;28;759;-61
2022/06/15 06:46:44;;;;;;;;;;;;;;;31.39;38.71;100062.75;5092157;28;975;-61
2022/06/15 06:49:11;;;;;;;;;;;;;;;32.22;37.88;100076.22;5092123;28;810;-60
2022/06/15 06:51:39;;;;;;;;;;;;;;;32.68;36.68;100069.09;5092083;28;1881;-60
2022/06/15 06:54:07;;;;;;;;;;;;;;;32.74;36.44;100069.75;5092037;28;921;-61
2022/06/15 06:56:35;;;;;;;;;;;;;;;32.60;36.31;100068.22;5092088;28;851;-61
2022/06/15 06:59:02;;;;;;;;;;;;;;;32.97;36.31;100072.13;5091972;28;878;-61
2022/06/15 07:01:30;;;;;;;;;;;;;;;33.49;35.76;100067.56;5092100;28;881;-61
2022/06/15 07:03:57;;;;;;;;;;;;;;;33.37;35.21;100069.16;5091934;28;882;-62
2022/06/15 07:06:24;;;;;;;;;;;;;;;33.06;36.48;100074.53;5091669;28;881;-61
2022/06/15 07:08:51;;;;;;;;;;;;;;;33.14;35.96;100071.78;5091801;28;861;-62
2022/06/15 07:11:18;;;;;;;;;;;;;;;32.53;36.76;100086.06;5091774;28;1938;-61
2022/06/15 07:13:45;;;;;;;;;;;;;;;33.14;35.63;100081.16;5091882;28;952;-61
2022/06/15 07:16:14;;;;;;;;;;;;;;;33.58;35.34;100071.28;5091697;28;850;-61
2022/06/15 07:18:43;;;;;;;;;;;;;;;33.51;35.19;100075.63;5092263;28;881;-61
2022/06/15 07:21:12;;;;;;;;;;;;;;;33.91;34.94;100073.34;5124297;27;794;-61
2022/06/15 07:23:42;;;;;;;;;;;;;;;34.60;34.46;100078.03;5091670;28;869;-61
2022/06/15 07:26:12;;;;;;;;;;;;;;;34.94;33.12;100074.97;5091756;28;889;-61
2022/06/15 07:28:40;;;;;;;;;;;;;;;35.06;33.01;100075.38;5091733;28;861;-61
2022/06/15 07:31:07;;;;;;;;;;;;;;;35.61;32.33;100071.34;5091130;28;1898;-61
2022/06/15 07:33:36;;;;;;;;;;;;;;;36.08;31.51;100072.91;5091668;28;908;-61
2022/06/15 07:36:03;;;;;;;;;;;;;;;36.04;30.19;100070.44;5090249;28;890;-61
2022/06/15 07:38:30;;;;;;;;;;;;;;;36.23;30.98;100075.78;5091518;28;818;-61
2022/06/15 07:40:59;;;;;;;;;;;;;;;36.94;30.45;100078.69;5091484;28;1049;-61
2022/06/15 07:43:26;;;;;;;;;;;;;;;37.51;29.01;100068.63;5091627;28;885;-61
2022/06/15 07:45:53;;;;;;;;;;;;;;;36.99;29.12;100074.81;5091562;28;893;-61
2022/06/15 07:51:05;;;;;;;;;;;;;;;35.36;31.96;100087.00;5091427;28;1913;-61
2022/06/15 07:53:32;;;;;;;;;;;;;;;34.24;32.92;100091.00;5091408;28;841;-60
2022/06/15 07:55:59;;;;;;;;;;;;;;;35.00;32.24;100080.56;5091465;28;857;-60
2022/06/15 07:58:26;;;;;;;;;;;;;;;35.94;31.30;100086.72;5091376;28;814;-61
2022/06/15 08:00:53;;;;;;;;;;;;;;;36.98;29.97;100093.47;5090005;28;912;-60
2022/06/15 08:03:20;;;;;;;;;;;;;;;37.16;29.70;100094.34;5091344;28;1223;-60
2022/06/15 08:05:48;;;;;;;;;;;;;;;37.05;29.30;100085.38;5091639;28;877;-62
2022/06/15 08:08:17;;;;;;;;;;;;;;;37.44;29.27;100086.72;5091179;28;862;-60
2022/06/15 08:10:45;;;;;;;;;;;;;;;37.75;28.84;100089.41;5091109;28;1878;-61
2022/06/15 08:13:12;;;;;;;;;;;;;;;35.28;31.72;100088.34;5091213;28;851;-60
2022/06/15 08:15:41;;;;;;;;;;;;;;;32.38;35.44;100092.28;5091141;28;909;-60
2022/06/15 08:18:10;;;;;;;;;;;;;;;32.88;34.33;100084.81;5093027;28;861;-60
2022/06/15 08:20:41;;;;;;;;;;;;;;;34.43;33.96;100081.38;5095335;28;798;-60
2022/06/15 08:23:11;;;;;;;;;;;;;;;35.81;31.37;100087.69;5094965;28;818;-61
2022/06/15 08:25:39;;;;;;;;;;;;;;;35.94;31.25;100090.38;5095075;28;830;-62
2022/06/15 08:28:07;;;;;;;;;;;;;;;33.15;34.88;100088.41;5093580;28;1228;-60
2022/06/15 08:30:36;;;;;;;;;;;;;;;30.80;37.90;100093.91;5094464;28;1894;-60
2022/06/15 08:33:04;;;;;;;;;;;;;;;28.64;41.68;100088.22;5094795;28;790;-61
2022/06/15 08:35:32;;;;;;;;;;;;;;;27.26;44.16;100101.38;5094734;28;897;-60
2022/06/15 08:37:59;;;;;;;;;;;;;;;26.47;46.78;100098.16;5094623;28;806;-62
2022/06/15 08:40:29;;;;;;;;;;;;;;;26.12;48.76;100100.50;5094689;28;814;-60
2022/06/15 08:43:02;;;;;;;;;;;;;;;26.88;48.26;100094.28;5127379;27;908;-60
2022/06/15 08:45:40;;;;;;;;;;;;;;;29.31;44.20;100087.16;5094760;28;1178;-60
2022/06/15 08:48:09;;;;;;;;;;;;;;;29.41;43.83;100087.63;5094546;28;909;-60
2022/06/15 08:50:41;;;;;;;;;;;;;;;28.35;44.59;100095.25;5094305;28;1941;-60
2022/06/15 08:53:19;;;;;;;;;;;;;;;27.33;46.27;100105.78;5127291;27;810;-60
2022/06/15 08:55:51;;;;;;;;;;;;;;;26.52;48.41;100105.13;5094414;28;809;-60
2022/06/15 08:58:21;;;;;;;;;;;;;;;26.16;49.71;100106.72;5094322;28;1010;-60
2022/06/15 09:00:50;;;;;;;;;;;;;;;25.89;51.09;100110.91;5094202;28;813;-60
2022/06/15 09:03:27;;;;;;;;;;;;;;;25.83;51.92;100105.91;5127125;27;1015;-60
2022/06/15 09:06:16;;;;;;;;;;;;;;;26.13;51.98;100107.72;5094261;28;791;-60
2022/06/15 09:08:43;;;;;;;;;;;;;;;26.23;51.21;100109.09;5094158;28;865;-60
2022/06/15 09:11:33;;;;;;;;;;;;;;;26.35;50.89;100107.91;5094087;28;1873;-60
2022/06/15 09:14:17;;;;;;;;;;;;;;;27.03;49.66;100109.03;5083656;28;1198;-60
2022/06/15 09:16:47;;;;;;;;;;;;;;;27.76;48.07;100114.13;5094016;28;810;-60
2022/06/15 09:19:16;;;;;;;;;;;;;;;28.80;44.77;100094.38;5093894;28;869;-60
2022/06/15 09:21:52;;;;;;;;;;;;;;;30.43;41.93;100104.69;5093757;28;861;-61
2022/06/15 09:24:26;;;;;;;;;;;;;;;29.56;42.83;100104.34;5094304;28;818;-61
2022/06/15 09:26:55;;;;;;;;;;;;;;;28.18;44.75;100111.56;5093814;28;802;-61
2022/06/15 09:29:27;;;;;;;;;;;;;;;27.61;47.69;100110.75;5093529;28;890;-60
2022/06/15 09:32:01;;;;;;;;;;;;;;;27.15;48.77;100112.69;5093228;28;1902;-60
2022/06/15 09:34:36;;;;;;;;;;;;;;;26.55;50.14;100115.47;5093831;28;837;-60
2022/06/15 09:37:05;;;;;;;;;;;;;;;26.38;50.53;100106.09;5093561;28;795;-60
2022/06/15 09:39:32;;;;;;;;;;;;;;;27.29;49.87;100113.81;5093507;28;822;-61
2022/06/15 09:42:19;;;;;;;;;;;;;;;28.40;48.45;100113.59;5093447;28;901;-60
2022/06/15 09:45:03;;;;;;;;;;;;;;;27.75;47.61;100115.41;5093342;28;1034;-60
2022/06/15 09:47:30;;;;;;;;;;;;;;;26.80;49.72;100119.50;5093444;28;826;-60
2022/06/15 09:49:56;;;;;;;;;;;;;;;26.25;51.50;100121.47;5093380;28;951;-60
2022/06/15 09:52:41;;;;;;;;;;;;;;;26.06;52.17;100118.25;5093113;28;1961;-60
2022/06/15 09:55:10;;;;;;;;;;;;;;;26.33;52.03;100121.78;5093494;28;817;-60
2022/06/15 09:57:37;;;;;;;;;;;;;;;26.79;51.64;100117.94;5093195;28;865;-60
2022/06/15 10:00:05;;;;;;;;;;;;;;;26.89;51.77;100112.84;5093165;28;862;-60
2022/06/15 10:30:54;;;;;;;;;;;;;;;26.30;52.35;100102.19;5043750;28;1949;-60
2022/06/15 10:33:22;;;;;;;;;;;;;;;27.35;51.10;100096.78;5052371;28;896;-61
2022/06/15 10:35:53;;;;;;;;;;;;;;;28.70;49.29;100091.84;5052401;28;809;-60
2022/06/15 10:38:21;;;;;;;;;;;;;;;28.94;47.18;100089.69;5052181;28;948;-60
2022/06/15 10:43:47;;;;;;;;;;;;;;;27.54;49.94;100097.84;5052455;28;625;-60
2022/06/15 10:46:15;;;;;;;;;;;;;;;26.99;50.78;100093.53;5052734;28;841;-60
2022/06/15 10:48:49;;;;;;;;;;;;;;;26.57;52.02;100092.34;5052284;28;926;-60
2022/06/15 10:51:28;;;;;;;;;;;;;;;26.50;51.35;100085.06;5051930;28;1906;-60
2022/06/15 10:54:13;;;;;;;;;;;;;;;27.81;49.91;100082.13;5051970;28;814;-60
2022/06/15 11:02:23;;;;;;;;;;;;;;;28.71;45.85;100078.38;5052151;28;625;-60
2022/06/15 11:04:52;;;;;;;;;;;;;;;29.19;43.93;100080.00;5052130;28;830;-60
2022/06/15 11:07:21;;;;;;;;;;;;;;;28.76;44.93;100079.66;5051806;28;865;-60
2022/06/15 11:09:57;;;;;;;;;;;;;;;29.44;44.84;100086.56;5051676;28;852;-60
2022/06/15 11:12:25;;;;;;;;;;;;;;;30.16;42.92;100080.81;5051649;28;1886;-60
2022/06/15 11:14:53;;;;;;;;;;;;;;;29.72;43.26;100079.91;5051609;28;851;-60
2022/06/15 11:20:29;;;;;;;;;;;;;;;30.90;41.86;100084.44;5052134;28;617;-61
2022/06/15 11:23:02;;;;;;;;;;;;;;;30.19;42.97;100090.38;5030410;28;1278;-60
2022/06/15 11:25:40;;;;;;;;;;;;;;;29.36;44.26;100085.59;5051679;28;821;-60
2022/06/15 11:28:10;;;;;;;;;;;;;;;28.81;45.26;100082.47;5051453;28;941;-60
2022/06/15 11:30:39;;;;;;;;;;;;;;;28.01;47.39;100078.25;5051166;28;1975;-60
2022/06/15 11:33:16;;;;;;;;;;;;;;;27.35;50.11;100094.69;5050263;28;1334;-61
2022/06/15 11:35:44;;;;;;;;;;;;;;;26.97;51.91;100091.22;5051601;28;798;-60
2022/06/15 11:38:21;;;;;;;;;;;;;;;27.18;51.46;100091.03;5051665;28;872;-60
2022/06/15 11:40:50;;;;;;;;;;;;;;;29.11;48.15;100088.31;5051358;28;842;-61
2022/06/15 11:43:22;;;;;;;;;;;;;;;30.23;46.10;100079.47;5051794;28;845;-61
2022/06/15 11:45:54;;;;;;;;;;;;;;;29.88;45.93;100084.69;5051332;28;853;-62
2022/06/15 11:48:32;;;;;;;;;;;;;;;28.38;48.52;100082.06;5051358;28;838;-60
2022/06/15 11:51:20;;;;;;;;;;;;;;;27.05;51.33;100089.44;5051475;28;1937;-60
2022/06/15 11:53:58;;;;;;;;;;;;;;;26.46;53.17;100090.97;5054181;28;1550;-60
2022/06/15 11:56:28;;;;;;;;;;;;;;;26.03;54.20;100099.44;5055369;28;877;-61
2022/06/15 11:58:55;;;;;;;;;;;;;;;25.95;54.92;100097.56;5055055;28;862;-60
2022/06/15 12:01:32;;;;;;;;;;;;;;;26.19;55.09;100109.31;5055234;28;810;-60
2022/06/15 12:04:20;;;;;;;;;;;;;;;26.17;55.00;100109.06;5055234;28;850;-61
2022/06/15 12:07:03;;;;;;;;;;;;;;;26.32;54.68;100097.56;5055119;28;834;-60
2022/06/15 12:09:46;;;;;;;;;;;;;;;26.46;54.29;100098.69;5054976;28;937;-60
2022/06/15 12:12:38;;;;;;;;;;;;;;;26.74;54.76;100096.03;5054821;28;1902;-60
2022/06/15 12:15:14;;;;;;;;;;;;;;;26.92;54.19;100097.63;5054874;28;910;-60
2022/06/15 12:17:46;;;;;;;;;;;;;;;27.07;53.89;100091.75;5054946;28;826;-60
2022/06/15 12:20:19;;;;;;;;;;;;;;;27.38;52.55;100090.84;5054825;28;992;-61
2022/06/15 12:23:06;;;;;;;;;;;;;;;28.79;50.02;100081.47;5054889;28;809;-60
2022/06/15 12:25:33;;;;;;;;;;;;;;;28.73;49.63;100077.88;5054726;28;1611;-60
2022/06/15 12:28:00;;;;;;;;;;;;;;;28.10;51.50;100080.84;5054453;28;1351;-62
2022/06/15 12:30:45;;;;;;;;;;;;;;;27.42;51.73;100080.03;5054275;28;1910;-60
2022/06/15 12:33:41;;;;;;;;;;;;;;;26.75;53.21;100088.28;5054645;28;888;-61
2022/06/15 12:36:20;;;;;;;;;;;;;;;26.07;54.38;100080.16;5045635;28;1922;-60
2022/06/15 12:38:50;;;;;;;;;;;;;;;25.68;55.93;100072.06;5054708;28;883;-60
2022/06/15 12:44:19;;;;;;;;;;;;;;;25.34;56.88;100071.00;5054938;28;680;-60
2022/06/15 12:46:47;;;;;;;;;;;;;;;25.49;57.13;100070.88;5054389;28;888;-60
2022/06/15 12:49:24;;;;;;;;;;;;;;;25.73;56.66;100067.75;5054363;28;838;-61
2022/06/15 12:52:04;;;;;;;;;;;;;;;25.92;56.65;100067.41;5054266;28;1889;-60
2022/06/15 12:54:43;;;;;;;;;;;;;;;26.03;56.11;100059.78;5054201;28;940;-59
2022/06/15 12:57:30;;;;;;;;;;;;;;;25.89;55.95;100059.94;5054321;28;805;-59
2022/06/15 13:00:05;;;;;;;;;;;;;;;25.55;56.84;100049.06;5054402;28;818;-64
2022/06/15 13:02:45;;;;;;;;;;;;;;;24.96;57.55;100057.94;5054054;28;806;-59
2022/06/15 13:05:19;;;;;;;;;;;;;;;24.58;58.41;100052.13;5054050;28;826;-60
2022/06/15 13:08:05;;;;;;;;;;;;;;;24.35;59.51;100051.00;5053938;28;997;-60
2022/06/15 13:10:32;;;;;;;;;;;;;;;24.10;60.33;100049.63;5053802;28;1885;-59
2022/06/15 13:13:01;;;;;;;;;;;;;;;23.97;61.20;100047.09;5054000;28;825;-60
2022/06/15 13:15:33;;;;;;;;;;;;;;;23.82;62.05;100041.50;5053748;28;850;-60
2022/06/15 13:18:11;;;;;;;;;;;;;;;23.62;63.13;100039.34;5053927;28;795;-60
2022/06/15 13:20:47;;;;;;;;;;;;;;;23.57;63.42;100051.31;5053672;28;901;-60
2022/06/15 13:23:29;;;;;;;;;;;;;;;23.41;63.83;100054.63;5053676;28;958;-61
2022/06/15 13:25:57;;;;;;;;;;;;;;;22.88;67.31;100061.03;5053528;28;837;-63
2022/06/15 13:28:26;;;;;;;;;;;;;;;22.12;71.13;100075.97;5053511;28;993;-61
2022/06/15 13:30:54;;;;;;;;;;;;;;;21.27;74.98;100080.72;5053211;28;1967;-60
2022/06/15 13:33:41;;;;;;;;;;;;;;;20.51;78.61;100094.38;5053362;28;890;-63
2022/06/15 13:36:14;;;;;;;;;;;;;;;19.44;87.31;100096.47;5053422;28;1158;-70
2022/06/15 13:38:45;;;;;;;;;;;;;;;18.61;96.15;100104.16;5053650;28;862;-67
2022/06/15 13:41:17;;;;;;;;;;;;;;;18.20;99.97;100115.03;5053300;28;854;-64
2022/06/15 13:43:48;;;;;;;;;;;;;;;18.00;100.00;100109.66;5053429;28;881;-64
2022/06/15 13:46:21;;;;;;;;;;;;;;;17.87;100.00;100111.66;5053228;28;791;-64
2022/06/15 13:48:52;;;;;;;;;;;;;;;17.82;100.00;100118.59;5053206;28;884;-65
2022/06/15 13:51:39;;;;;;;;;;;;;;;17.94;100.00;100117.03;5053237;28;1941;-68
2022/06/15 13:54:25;;;;;;;;;;;;;;;17.97;100.00;100123.75;5045732;28;1240;-68
2022/06/15 13:56:52;;;;;;;;;;;;;;;17.97;100.00;100118.16;5052912;28;877;-70
2022/06/15 13:59:36;;;;;;;;;;;;;;;18.14;100.00;100114.81;5053181;28;787;-75
2022/06/15 14:02:17;;;;;;;;;;;;;;;18.71;100.00;100115.00;5051930;28;1292;-67
2022/06/15 14:04:47;;;;;;;;;;;;;;;19.28;100.00;100111.47;5052945;28;865;-66
2022/06/15 14:07:34;;;;;;;;;;;;;;;19.72;100.00;100112.28;5051556;28;1282;-64